sensor_id;sensor_type;location;lat;lon;timestamp;temperature;humidity
11961;DHT22;6040;49.358;11.140;2023-03-21T00:02:12;6.50;99.90
11961;DHT22;6040;49.358;11.140;2023-03-21T00:04:39;6.60;99.90
11961;DHT22;6040;49.358;11.140;2023-03-21T00:07:06;6.60;99.90
11961;DHT22;6040;49.358;11.140;2023-03-21T00:09:33;6.60;99.90
11961;DHT22;6040;49.358;11.140;2023-03-21T00:11:59;6.50;99.90
11961;DHT22;6040;49.358;11.140;2023-03-21T00:14:27;6.60;99.90
11961;DHT22;6040;49.358;11.140;2023-03-21T00:16:57;6.60;99.90
11961;DHT22;6040;49.358;11.140;2023-03-21T00:19:23;6.60;99.90
11961;DHT22;6040;49.358;11.140;2023-03-21T00:21:53;6.70;99.90
11961;DHT22;6040;49.358;11.140;2023-03-21T00:24:20;6.60;99.90
11961;DHT22;6040;49.358;11.140;2023-03-21T00:26:47;6.70;99.90
11961;DHT22;6040;49.358;11.140;2023-03-21T00:29:14;6.60;99.90
11961;DHT22;6040;49.358;11.140;2023-03-21T00:31:41;5.60;99.90
11961;DHT22;6040;49.358;11.140;2023-03-21T00:34:10;6.60;99.90
11961;DHT22;6040;49.358;11.140;2023-03-21T00:36:37;6.70;99.90
11961;DHT22;6040;49.358;11.140;2023-03-21T00:39:04;6.90;99.90
11961;DHT22;6040;49.358;11.140;2023-03-21T00:41:31;6.60;99.90
11961;DHT22;6040;49.358;11.140;2023-03-21T00:43:58;6.60;99.90
11961;DHT22;6040;49.358;11.140;2023-03-21T00:46:26;6.50;99.90
11961;DHT22;6040;49.358;11.140;2023-03-21T00:48:52;6.50;99.90
11961;DHT22;6040;49.358;11.140;2023-03-21T00:51:21;6.60;99.90
11961;DHT22;6040;49.358;11.140;2023-03-21T00:53:52;6.50;99.90
11961;DHT22;6040;49.358;11.140;2023-03-21T00:56:19;6.40;99.90
11961;DHT22;6040;49.358;11.140;2023-03-21T00:58:46;6.40;99.90
11961;DHT22;6040;49.358;11.140;2023-03-21T01:01:12;6.40;99.90
11961;DHT22;6040;49.358;11.140;2023-03-21T01:03:39;7.20;99.90
11961;DHT22;6040;49.358;11.140;2023-03-21T01:06:16;6.40;99.90
11961;DHT22;6040;49.358;11.140;2023-03-21T01:08:46;6.40;99.90
11961;DHT22;6040;49.358;11.140;2023-03-21T01:11:15;6.30;99.90
11961;DHT22;6040;49.358;11.140;2023-03-21T01:13:43;6.20;99.90
11961;DHT22;6040;49.358;11.140;2023-03-21T01:16:10;6.20;99.90
11961;DHT22;6040;49.358;11.140;2023-03-21T01:18:39;7.10;99.90
11961;DHT22;6040;49.358;11.140;2023-03-21T01:21:09;6.20;99.90
11961;DHT22;6040;49.358;11.140;2023-03-21T01:23:36;7.60;99.90
11961;DHT22;6040;49.358;11.140;2023-03-21T01:26:05;6.20;99.90
11961;DHT22;6040;49.358;11.140;2023-03-21T01:28:32;6.20;99.90
11961;DHT22;6040;49.358;11.140;2023-03-21T01:31:00;6.10;99.90
11961;DHT22;6040;49.358;11.140;2023-03-21T01:33:28;6.10;99.90
11961;DHT22;6040;49.358;11.140;2023-03-21T01:35:55;6.10;99.90
11961;DHT22;6040;49.358;11.140;2023-03-21T01:38:22;6.10;99.90
11961;DHT22;6040;49.358;11.140;2023-03-21T01:40:49;6.90;99.90
11961;DHT22;6040;49.358;11.140;2023-03-21T01:43:26;6.00;99.90
11961;DHT22;6040;49.358;11.140;2023-03-21T01:46:20;7.30;99.90
11961;DHT22;6040;49.358;11.140;2023-03-21T01:48:50;6.10;99.90
11961;DHT22;6040;49.358;11.140;2023-03-21T01:51:19;6.10;99.90
11961;DHT22;6040;49.358;11.140;2023-03-21T01:53:47;6.10;99.90
11961;DHT22;6040;49.358;11.140;2023-03-21T01:56:18;6.10;99.90
11961;DHT22;6040;49.358;11.140;2023-03-21T01:58:49;6.10;99.90
11961;DHT22;6040;49.358;11.140;2023-03-21T02:01:17;6.10;99.90
11961;DHT22;6040;49.358;11.140;2023-03-21T02:03:48;6.10;99.90
11961;DHT22;6040;49.358;11.140;2023-03-21T02:06:21;6.10;99.90
11961;DHT22;6040;49.358;11.140;2023-03-21T02:08:51;6.10;99.90
11961;DHT22;6040;49.358;11.140;2023-03-21T02:11:19;6.00;99.90
11961;DHT22;6040;49.358;11.140;2023-03-21T02:13:49;6.00;99.90
11961;DHT22;6040;49.358;11.140;2023-03-21T02:16:20;6.60;99.90
11961;DHT22;6040;49.358;11.140;2023-03-21T02:18:55;6.80;99.90
11961;DHT22;6040;49.358;11.140;2023-03-21T02:21:47;6.00;99.90
11961;DHT22;6040;49.358;11.140;2023-03-21T02:24:42;6.00;99.90
11961;DHT22;6040;49.358;11.140;2023-03-21T02:27:15;6.20;99.90
11961;DHT22;6040;49.358;11.140;2023-03-21T02:30:39;6.10;99.90
11961;DHT22;6040;49.358;11.140;2023-03-21T02:33:40;6.00;99.90
11961;DHT22;6040;49.358;11.140;2023-03-21T02:36:27;6.00;99.90
11961;DHT22;6040;49.358;11.140;2023-03-21T02:39:07;5.90;99.90
11961;DHT22;6040;49.358;11.140;2023-03-21T02:41:44;6.80;99.90
11961;DHT22;6040;49.358;11.140;2023-03-21T02:44:18;6.00;99.90
11961;DHT22;6040;49.358;11.140;2023-03-21T02:46:50;6.00;99.90
11961;DHT22;6040;49.358;11.140;2023-03-21T02:49:22;6.30;99.90
11961;DHT22;6040;49.358;11.140;2023-03-21T02:51:50;6.00;99.90
11961;DHT22;6040;49.358;11.140;2023-03-21T02:54:21;6.40;99.90
11961;DHT22;6040;49.358;11.140;2023-03-21T02:56:50;6.10;99.90
11961;DHT22;6040;49.358;11.140;2023-03-21T02:59:19;6.00;99.90
11961;DHT22;6040;49.358;11.140;2023-03-21T03:01:46;6.00;99.90
11961;DHT22;6040;49.358;11.140;2023-03-21T03:04:18;6.00;99.90
11961;DHT22;6040;49.358;11.140;2023-03-21T03:07:00;6.00;99.90
11961;DHT22;6040;49.358;11.140;2023-03-21T03:09:38;6.10;99.90
11961;DHT22;6040;49.358;11.140;2023-03-21T03:12:14;6.00;99.90
11961;DHT22;6040;49.358;11.140;2023-03-21T03:14:50;6.10;99.90
11961;DHT22;6040;49.358;11.140;2023-03-21T03:17:23;6.00;99.90
11961;DHT22;6040;49.358;11.140;2023-03-21T03:22:56;6.00;99.90
11961;DHT22;6040;49.358;11.140;2023-03-21T03:25:27;6.00;99.90
11961;DHT22;6040;49.358;11.140;2023-03-21T03:27:56;6.00;99.90
11961;DHT22;6040;49.358;11.140;2023-03-21T03:30:24;6.00;99.90
11961;DHT22;6040;49.358;11.140;2023-03-21T03:32:54;6.00;99.90
11961;DHT22;6040;49.358;11.140;2023-03-21T03:35:23;6.00;99.90
11961;DHT22;6040;49.358;11.140;2023-03-21T03:37:54;6.00;99.90
11961;DHT22;6040;49.358;11.140;2023-03-21T03:40:26;6.00;99.90
11961;DHT22;6040;49.358;11.140;2023-03-21T03:42:58;6.00;99.90
11961;DHT22;6040;49.358;11.140;2023-03-21T03:45:30;6.00;99.90
11961;DHT22;6040;49.358;11.140;2023-03-21T03:48:04;6.00;99.90
11961;DHT22;6040;49.358;11.140;2023-03-21T03:50:37;6.00;99.90
11961;DHT22;6040;49.358;11.140;2023-03-21T03:53:10;6.10;99.90
11961;DHT22;6040;49.358;11.140;2023-03-21T03:55:42;6.00;99.90
11961;DHT22;6040;49.358;11.140;2023-03-21T03:58:10;6.10;99.90
11961;DHT22;6040;49.358;11.140;2023-03-21T04:00:38;6.30;99.90
11961;DHT22;6040;49.358;11.140;2023-03-21T04:03:05;7.10;99.90
11961;DHT22;6040;49.358;11.140;2023-03-21T04:05:34;6.10;99.90
11961;DHT22;6040;49.358;11.140;2023-03-21T04:08:01;6.70;99.90
11961;DHT22;6040;49.358;11.140;2023-03-21T04:10:28;5.90;99.90
11961;DHT22;6040;49.358;11.140;2023-03-21T04:12:56;5.90;99.90
11961;DHT22;6040;49.358;11.140;2023-03-21T04:15:23;5.90;99.90
11961;DHT22;6040;49.358;11.140;2023-03-21T04:17:50;5.90;99.90
11961;DHT22;6040;49.358;11.140;2023-03-21T04:20:17;6.00;99.90
11961;DHT22;6040;49.358;11.140;2023-03-21T04:22:43;5.90;99.90
11961;DHT22;6040;49.358;11.140;2023-03-21T04:25:10;5.90;99.90
11961;DHT22;6040;49.358;11.140;2023-03-21T04:27:38;5.90;99.90
11961;DHT22;6040;49.358;11.140;2023-03-21T04:30:07;5.90;99.90
11961;DHT22;6040;49.358;11.140;2023-03-21T04:32:36;5.80;99.90
11961;DHT22;6040;49.358;11.140;2023-03-21T04:35:05;5.80;99.90
11961;DHT22;6040;49.358;11.140;2023-03-21T04:37:33;5.90;99.90
11961;DHT22;6040;49.358;11.140;2023-03-21T04:40:00;6.20;99.90
11961;DHT22;6040;49.358;11.140;2023-03-21T04:42:31;5.70;99.90
11961;DHT22;6040;49.358;11.140;2023-03-21T04:44:58;5.70;99.90
11961;DHT22;6040;49.358;11.140;2023-03-21T04:47:26;5.60;99.90
11961;DHT22;6040;49.358;11.140;2023-03-21T04:49:53;5.60;99.90
11961;DHT22;6040;49.358;11.140;2023-03-21T04:52:21;5.50;99.90
11961;DHT22;6040;49.358;11.140;2023-03-21T04:54:48;5.40;99.90
11961;DHT22;6040;49.358;11.140;2023-03-21T04:57:15;5.40;99.90
11961;DHT22;6040;49.358;11.140;2023-03-21T04:59:42;5.30;99.90
11961;DHT22;6040;49.358;11.140;2023-03-21T05:02:10;5.20;99.90
11961;DHT22;6040;49.358;11.140;2023-03-21T05:04:39;5.20;99.90
11961;DHT22;6040;49.358;11.140;2023-03-21T05:07:05;5.20;99.90
11961;DHT22;6040;49.358;11.140;2023-03-21T05:09:32;6.00;99.90
11961;DHT22;6040;49.358;11.140;2023-03-21T05:11:59;6.20;99.90
11961;DHT22;6040;49.358;11.140;2023-03-21T05:14:26;5.10;99.90
11961;DHT22;6040;49.358;11.140;2023-03-21T05:16:53;5.00;99.90
11961;DHT22;6040;49.358;11.140;2023-03-21T05:19:22;5.00;99.90
11961;DHT22;6040;49.358;11.140;2023-03-21T05:21:50;5.00;99.90
11961;DHT22;6040;49.358;11.140;2023-03-21T05:24:19;5.00;99.90
11961;DHT22;6040;49.358;11.140;2023-03-21T05:26:46;5.00;99.90
11961;DHT22;6040;49.358;11.140;2023-03-21T05:29:17;5.50;99.90
11961;DHT22;6040;49.358;11.140;2023-03-21T05:31:44;5.00;99.90
11961;DHT22;6040;49.358;11.140;2023-03-21T05:34:12;5.00;99.90
11961;DHT22;6040;49.358;11.140;2023-03-21T05:36:40;5.10;99.90
11961;DHT22;6040;49.358;11.140;2023-03-21T05:39:08;5.10;99.90
11961;DHT22;6040;49.358;11.140;2023-03-21T05:41:35;5.20;99.90
11961;DHT22;6040;49.358;11.140;2023-03-21T05:44:01;5.20;99.90
11961;DHT22;6040;49.358;11.140;2023-03-21T05:46:28;5.20;99.90
11961;DHT22;6040;49.358;11.140;2023-03-21T05:48:55;5.20;99.90
11961;DHT22;6040;49.358;11.140;2023-03-21T05:51:22;5.30;99.90
11961;DHT22;6040;49.358;11.140;2023-03-21T05:53:49;5.40;99.90
11961;DHT22;6040;49.358;11.140;2023-03-21T05:56:17;5.50;99.90
11961;DHT22;6040;49.358;11.140;2023-03-21T05:58:44;5.50;99.90
11961;DHT22;6040;49.358;11.140;2023-03-21T06:01:11;5.60;99.90
11961;DHT22;6040;49.358;11.140;2023-03-21T06:03:38;5.70;99.90
11961;DHT22;6040;49.358;11.140;2023-03-21T06:06:05;5.80;99.90
11961;DHT22;6040;49.358;11.140;2023-03-21T06:08:32;5.90;99.90
11961;DHT22;6040;49.358;11.140;2023-03-21T06:10:59;6.00;99.90
11961;DHT22;6040;49.358;11.140;2023-03-21T06:13:27;7.30;99.90
11961;DHT22;6040;49.358;11.140;2023-03-21T06:15:55;6.10;99.90
11961;DHT22;6040;49.358;11.140;2023-03-21T06:18:22;6.20;99.90
11961;DHT22;6040;49.358;11.140;2023-03-21T06:20:49;6.20;99.90
11961;DHT22;6040;49.358;11.140;2023-03-21T06:23:16;6.20;99.90
11961;DHT22;6040;49.358;11.140;2023-03-21T06:25:43;6.30;99.90
11961;DHT22;6040;49.358;11.140;2023-03-21T06:28:09;6.30;99.90
11961;DHT22;6040;49.358;11.140;2023-03-21T06:30:37;6.40;99.90
11961;DHT22;6040;49.358;11.140;2023-03-21T06:33:04;6.40;99.90
11961;DHT22;6040;49.358;11.140;2023-03-21T06:35:31;6.50;99.90
11961;DHT22;6040;49.358;11.140;2023-03-21T06:37:58;7.60;99.90
11961;DHT22;6040;49.358;11.140;2023-03-21T06:40:25;6.70;99.90
11961;DHT22;6040;49.358;11.140;2023-03-21T06:42:51;6.70;99.90
11961;DHT22;6040;49.358;11.140;2023-03-21T06:45:18;6.80;99.90
11961;DHT22;6040;49.358;11.140;2023-03-21T06:47:46;6.90;99.90
11961;DHT22;6040;49.358;11.140;2023-03-21T06:50:13;6.90;99.90
11961;DHT22;6040;49.358;11.140;2023-03-21T06:52:40;7.00;99.90
11961;DHT22;6040;49.358;11.140;2023-03-21T06:55:08;7.10;99.90
11961;DHT22;6040;49.358;11.140;2023-03-21T06:57:35;7.10;99.90
11961;DHT22;6040;49.358;11.140;2023-03-21T07:00:02;7.20;99.90
11961;DHT22;6040;49.358;11.140;2023-03-21T07:02:30;7.30;99.90
11961;DHT22;6040;49.358;11.140;2023-03-21T07:04:58;7.40;99.90
11961;DHT22;6040;49.358;11.140;2023-03-21T07:07:25;7.60;99.90
11961;DHT22;6040;49.358;11.140;2023-03-21T07:09:54;7.60;99.90
11961;DHT22;6040;49.358;11.140;2023-03-21T07:12:21;7.70;99.90
11961;DHT22;6040;49.358;11.140;2023-03-21T07:14:49;7.80;99.90
11961;DHT22;6040;49.358;11.140;2023-03-21T07:17:15;7.90;99.90
11961;DHT22;6040;49.358;11.140;2023-03-21T07:19:42;8.50;99.90
11961;DHT22;6040;49.358;11.140;2023-03-21T07:22:10;9.20;99.90
11961;DHT22;6040;49.358;11.140;2023-03-21T07:24:37;8.50;99.90
11961;DHT22;6040;49.358;11.140;2023-03-21T07:27:04;8.60;99.90
11961;DHT22;6040;49.358;11.140;2023-03-21T07:29:31;8.90;99.90
11961;DHT22;6040;49.358;11.140;2023-03-21T07:31:58;9.10;99.90
11961;DHT22;6040;49.358;11.140;2023-03-21T07:34:25;9.20;99.90
11961;DHT22;6040;49.358;11.140;2023-03-21T07:36:56;9.40;99.90
11961;DHT22;6040;49.358;11.140;2023-03-21T07:39:24;9.90;99.90
11961;DHT22;6040;49.358;11.140;2023-03-21T07:41:51;10.30;99.90
11961;DHT22;6040;49.358;11.140;2023-03-21T07:44:20;10.70;99.90
11961;DHT22;6040;49.358;11.140;2023-03-21T07:46:47;10.90;99.90
11961;DHT22;6040;49.358;11.140;2023-03-21T07:49:13;10.90;99.90
11961;DHT22;6040;49.358;11.140;2023-03-21T07:51:40;10.80;99.90
11961;DHT22;6040;49.358;11.140;2023-03-21T07:54:07;10.90;99.90
11961;DHT22;6040;49.358;11.140;2023-03-21T07:56:35;11.00;99.90
11961;DHT22;6040;49.358;11.140;2023-03-21T07:59:02;11.00;99.90
11961;DHT22;6040;49.358;11.140;2023-03-21T08:01:29;11.10;99.90
11961;DHT22;6040;49.358;11.140;2023-03-21T08:03:57;11.30;99.90
11961;DHT22;6040;49.358;11.140;2023-03-21T08:06:26;11.40;99.90
11961;DHT22;6040;49.358;11.140;2023-03-21T08:08:53;11.70;99.90
11961;DHT22;6040;49.358;11.140;2023-03-21T08:11:20;12.00;99.90
11961;DHT22;6040;49.358;11.140;2023-03-21T08:13:49;12.00;99.90
11961;DHT22;6040;49.358;11.140;2023-03-21T08:16:16;12.50;99.90
11961;DHT22;6040;49.358;11.140;2023-03-21T08:18:43;12.70;99.90
11961;DHT22;6040;49.358;11.140;2023-03-21T08:21:10;12.90;99.90
11961;DHT22;6040;49.358;11.140;2023-03-21T08:23:37;13.40;99.90
11961;DHT22;6040;49.358;11.140;2023-03-21T08:26:04;13.80;99.90
11961;DHT22;6040;49.358;11.140;2023-03-21T08:28:32;14.00;99.90
11961;DHT22;6040;49.358;11.140;2023-03-21T08:31:00;14.10;99.90
11961;DHT22;6040;49.358;11.140;2023-03-21T08:33:32;13.50;99.90
11961;DHT22;6040;49.358;11.140;2023-03-21T08:35:59;13.90;99.90
11961;DHT22;6040;49.358;11.140;2023-03-21T08:38:26;14.10;99.90
11961;DHT22;6040;49.358;11.140;2023-03-21T08:40:54;14.30;99.30
11961;DHT22;6040;49.358;11.140;2023-03-21T08:43:21;14.70;99.30
11961;DHT22;6040;49.358;11.140;2023-03-21T08:45:48;16.20;99.90
11961;DHT22;6040;49.358;11.140;2023-03-21T08:48:16;14.90;97.40
11961;DHT22;6040;49.358;11.140;2023-03-21T08:50:43;14.80;97.50
11961;DHT22;6040;49.358;11.140;2023-03-21T08:53:10;15.10;99.40
11961;DHT22;6040;49.358;11.140;2023-03-21T08:55:37;15.50;97.50
11961;DHT22;6040;49.358;11.140;2023-03-21T08:58:05;15.80;96.00
11961;DHT22;6040;49.358;11.140;2023-03-21T09:00:32;15.50;97.10
11961;DHT22;6040;49.358;11.140;2023-03-21T09:02:59;15.70;97.80
11961;DHT22;6040;49.358;11.140;2023-03-21T09:05:27;16.00;97.80
11961;DHT22;6040;49.358;11.140;2023-03-21T09:07:54;16.40;97.00
11961;DHT22;6040;49.358;11.140;2023-03-21T09:10:22;16.40;97.60
11961;DHT22;6040;49.358;11.140;2023-03-21T09:12:51;16.70;97.90
11961;DHT22;6040;49.358;11.140;2023-03-21T09:15:18;17.20;95.50
11961;DHT22;6040;49.358;11.140;2023-03-21T09:17:46;17.30;94.70
11961;DHT22;6040;49.358;11.140;2023-03-21T09:20:17;17.70;96.90
11961;DHT22;6040;49.358;11.140;2023-03-21T09:22:48;18.00;94.90
11961;DHT22;6040;49.358;11.140;2023-03-21T09:25:16;18.00;94.40
11961;DHT22;6040;49.358;11.140;2023-03-21T09:27:45;17.40;93.10
11961;DHT22;6040;49.358;11.140;2023-03-21T09:30:14;17.00;93.80
11961;DHT22;6040;49.358;11.140;2023-03-21T09:32:41;16.50;94.20
11961;DHT22;6040;49.358;11.140;2023-03-21T09:35:14;16.20;95.40
11961;DHT22;6040;49.358;11.140;2023-03-21T09:37:42;15.80;95.40
11961;DHT22;6040;49.358;11.140;2023-03-21T09:40:17;16.30;97.00
11961;DHT22;6040;49.358;11.140;2023-03-21T09:42:53;17.10;96.30
11961;DHT22;6040;49.358;11.140;2023-03-21T09:45:29;17.70;95.50
11961;DHT22;6040;49.358;11.140;2023-03-21T09:48:00;17.50;93.90
11961;DHT22;6040;49.358;11.140;2023-03-21T09:50:30;17.70;92.70
11961;DHT22;6040;49.358;11.140;2023-03-21T09:52:59;17.30;92.60
11961;DHT22;6040;49.358;11.140;2023-03-21T09:55:32;17.60;94.30
11961;DHT22;6040;49.358;11.140;2023-03-21T09:58:05;18.20;94.50
11961;DHT22;6040;49.358;11.140;2023-03-21T10:00:36;18.60;92.60
11961;DHT22;6040;49.358;11.140;2023-03-21T10:03:07;18.40;92.60
11961;DHT22;6040;49.358;11.140;2023-03-21T10:05:42;18.40;92.00
11961;DHT22;6040;49.358;11.140;2023-03-21T10:08:14;18.30;93.60
11961;DHT22;6040;49.358;11.140;2023-03-21T10:10:47;18.40;92.10
11961;DHT22;6040;49.358;11.140;2023-03-21T10:13:17;18.10;93.00
11961;DHT22;6040;49.358;11.140;2023-03-21T10:15:45;18.60;93.80
11961;DHT22;6040;49.358;11.140;2023-03-21T10:18:16;18.90;91.70
11961;DHT22;6040;49.358;11.140;2023-03-21T10:20:45;19.00;92.40
11961;DHT22;6040;49.358;11.140;2023-03-21T10:23:13;19.20;91.90
11961;DHT22;6040;49.358;11.140;2023-03-21T10:25:43;19.50;92.30
11961;DHT22;6040;49.358;11.140;2023-03-21T10:28:16;19.10;89.40
11961;DHT22;6040;49.358;11.140;2023-03-21T10:30:45;18.10;90.30
11961;DHT22;6040;49.358;11.140;2023-03-21T10:33:15;17.90;91.60
11961;DHT22;6040;49.358;11.140;2023-03-21T10:35:49;17.80;91.70
11961;DHT22;6040;49.358;11.140;2023-03-21T10:38:18;18.10;93.20
11961;DHT22;6040;49.358;11.140;2023-03-21T10:40:46;18.80;91.50
11961;DHT22;6040;49.358;11.140;2023-03-21T10:43:29;19.30;91.20
11961;DHT22;6040;49.358;11.140;2023-03-21T10:45:58;19.30;89.10
11961;DHT22;6040;49.358;11.140;2023-03-21T10:48:35;19.00;89.40
11961;DHT22;6040;49.358;11.140;2023-03-21T10:51:05;19.10;87.20
11961;DHT22;6040;49.358;11.140;2023-03-21T10:53:37;18.80;87.60
11961;DHT22;6040;49.358;11.140;2023-03-21T10:56:07;18.40;89.00
11961;DHT22;6040;49.358;11.140;2023-03-21T10:58:40;18.80;90.60
11961;DHT22;6040;49.358;11.140;2023-03-21T11:01:10;19.30;91.00
11961;DHT22;6040;49.358;11.140;2023-03-21T11:03:41;19.10;89.90
11961;DHT22;6040;49.358;11.140;2023-03-21T11:06:13;19.00;91.40
11961;DHT22;6040;49.358;11.140;2023-03-21T11:08:44;18.60;87.60
11961;DHT22;6040;49.358;11.140;2023-03-21T11:11:19;18.80;91.00
11961;DHT22;6040;49.358;11.140;2023-03-21T11:13:55;19.40;90.80
11961;DHT22;6040;49.358;11.140;2023-03-21T11:16:24;20.00;90.10
11961;DHT22;6040;49.358;11.140;2023-03-21T11:18:56;20.30;88.90
11961;DHT22;6040;49.358;11.140;2023-03-21T11:21:25;20.20;86.90
11961;DHT22;6040;49.358;11.140;2023-03-21T11:23:54;20.00;83.40
11961;DHT22;6040;49.358;11.140;2023-03-21T11:26:26;19.60;87.40
11961;DHT22;6040;49.358;11.140;2023-03-21T11:28:57;20.00;89.30
11961;DHT22;6040;49.358;11.140;2023-03-21T11:31:37;20.10;84.50
11961;DHT22;6040;49.358;11.140;2023-03-21T11:34:06;20.00;84.10
11961;DHT22;6040;49.358;11.140;2023-03-21T11:36:34;19.50;85.00
11961;DHT22;6040;49.358;11.140;2023-03-21T11:39:18;19.30;88.00
11961;DHT22;6040;49.358;11.140;2023-03-21T11:41:51;19.20;89.00
11961;DHT22;6040;49.358;11.140;2023-03-21T11:44:31;19.30;90.40
11961;DHT22;6040;49.358;11.140;2023-03-21T11:46:58;19.80;89.50
11961;DHT22;6040;49.358;11.140;2023-03-21T11:49:26;20.00;87.60
11961;DHT22;6040;49.358;11.140;2023-03-21T11:52:02;20.20;87.10
11961;DHT22;6040;49.358;11.140;2023-03-21T11:54:35;20.20;87.00
11961;DHT22;6040;49.358;11.140;2023-03-21T11:57:10;19.70;86.10
11961;DHT22;6040;49.358;11.140;2023-03-21T11:59:45;19.60;86.70
11961;DHT22;6040;49.358;11.140;2023-03-21T12:02:42;19.60;88.30
11961;DHT22;6040;49.358;11.140;2023-03-21T12:05:24;19.70;87.90
11961;DHT22;6040;49.358;11.140;2023-03-21T12:07:59;19.40;84.80
11961;DHT22;6040;49.358;11.140;2023-03-21T12:10:31;19.40;88.40
11961;DHT22;6040;49.358;11.140;2023-03-21T12:13:12;19.60;89.60
11961;DHT22;6040;49.358;11.140;2023-03-21T12:15:49;19.70;84.80
11961;DHT22;6040;49.358;11.140;2023-03-21T12:18:37;20.00;88.40
11961;DHT22;6040;49.358;11.140;2023-03-21T12:21:09;20.30;86.70
11961;DHT22;6040;49.358;11.140;2023-03-21T12:23:46;20.40;85.40
11961;DHT22;6040;49.358;11.140;2023-03-21T12:26:21;20.50;83.80
11961;DHT22;6040;49.358;11.140;2023-03-21T12:29:03;20.20;84.60
11961;DHT22;6040;49.358;11.140;2023-03-21T12:31:43;20.30;87.00
11961;DHT22;6040;49.358;11.140;2023-03-21T12:34:23;20.10;85.40
11961;DHT22;6040;49.358;11.140;2023-03-21T12:37:04;19.80;87.30
11961;DHT22;6040;49.358;11.140;2023-03-21T12:39:35;20.00;86.00
11961;DHT22;6040;49.358;11.140;2023-03-21T12:45:11;20.10;87.50
11961;DHT22;6040;49.358;11.140;2023-03-21T12:47:43;20.00;88.90
11961;DHT22;6040;49.358;11.140;2023-03-21T12:50:16;20.10;87.30
11961;DHT22;6040;49.358;11.140;2023-03-21T12:52:46;20.00;87.80
11961;DHT22;6040;49.358;11.140;2023-03-21T12:55:18;20.30;89.30
11961;DHT22;6040;49.358;11.140;2023-03-21T12:57:48;20.30;87.80
11961;DHT22;6040;49.358;11.140;2023-03-21T13:00:21;19.70;87.90
11961;DHT22;6040;49.358;11.140;2023-03-21T13:02:53;19.80;89.20
11961;DHT22;6040;49.358;11.140;2023-03-21T13:05:26;19.60;89.20
11961;DHT22;6040;49.358;11.140;2023-03-21T13:07:56;19.50;89.90
11961;DHT22;6040;49.358;11.140;2023-03-21T13:10:25;19.60;90.00
11961;DHT22;6040;49.358;11.140;2023-03-21T13:13:01;19.50;87.10
11961;DHT22;6040;49.358;11.140;2023-03-21T13:15:44;19.30;86.40
11961;DHT22;6040;49.358;11.140;2023-03-21T13:18:22;18.90;88.30
11961;DHT22;6040;49.358;11.140;2023-03-21T13:20:53;19.00;90.70
11961;DHT22;6040;49.358;11.140;2023-03-21T13:23:22;19.10;90.80
11961;DHT22;6040;49.358;11.140;2023-03-21T13:25:51;18.90;90.30
11961;DHT22;6040;49.358;11.140;2023-03-21T13:28:22;19.00;90.90
11961;DHT22;6040;49.358;11.140;2023-03-21T13:30:51;19.10;88.20
11961;DHT22;6040;49.358;11.140;2023-03-21T13:33:22;18.90;89.00
11961;DHT22;6040;49.358;11.140;2023-03-21T13:35:57;18.60;90.40
11961;DHT22;6040;49.358;11.140;2023-03-21T13:38:31;18.50;91.00
11961;DHT22;6040;49.358;11.140;2023-03-21T13:41:00;18.80;91.40
11961;DHT22;6040;49.358;11.140;2023-03-21T13:43:39;18.80;91.20
11961;DHT22;6040;49.358;11.140;2023-03-21T13:46:08;18.90;91.40
11961;DHT22;6040;49.358;11.140;2023-03-21T13:48:54;18.90;90.90
11961;DHT22;6040;49.358;11.140;2023-03-21T13:51:43;18.50;91.50
11961;DHT22;6040;49.358;11.140;2023-03-21T13:54:20;18.30;91.30
11961;DHT22;6040;49.358;11.140;2023-03-21T13:56:51;18.20;90.70
11961;DHT22;6040;49.358;11.140;2023-03-21T13:59:35;18.20;91.10
11961;DHT22;6040;49.358;11.140;2023-03-21T14:02:21;18.00;92.70
11961;DHT22;6040;49.358;11.140;2023-03-21T14:04:55;18.00;92.50
11961;DHT22;6040;49.358;11.140;2023-03-21T14:07:26;18.20;92.40
11961;DHT22;6040;49.358;11.140;2023-03-21T14:09:57;18.20;92.60
11961;DHT22;6040;49.358;11.140;2023-03-21T14:12:27;18.30;92.40
11961;DHT22;6040;49.358;11.140;2023-03-21T14:14:58;18.20;91.50
11961;DHT22;6040;49.358;11.140;2023-03-21T14:17:28;18.00;92.20
11961;DHT22;6040;49.358;11.140;2023-03-21T14:19:59;17.60;92.70
11961;DHT22;6040;49.358;11.140;2023-03-21T14:22:27;17.40;93.10
11961;DHT22;6040;49.358;11.140;2023-03-21T14:24:55;17.40;92.70
11961;DHT22;6040;49.358;11.140;2023-03-21T14:27:27;17.50;93.20
11961;DHT22;6040;49.358;11.140;2023-03-21T14:29:55;17.50;93.50
11961;DHT22;6040;49.358;11.140;2023-03-21T14:32:24;17.30;93.50
11961;DHT22;6040;49.358;11.140;2023-03-21T14:34:53;17.40;93.80
11961;DHT22;6040;49.358;11.140;2023-03-21T14:37:33;17.50;92.80
11961;DHT22;6040;49.358;11.140;2023-03-21T14:40:05;17.30;92.70
11961;DHT22;6040;49.358;11.140;2023-03-21T14:42:34;17.20;94.00
11961;DHT22;6040;49.358;11.140;2023-03-21T14:45:13;17.20;93.80
11961;DHT22;6040;49.358;11.140;2023-03-21T14:47:40;17.80;93.60
11961;DHT22;6040;49.358;11.140;2023-03-21T14:50:10;17.00;93.80
11961;DHT22;6040;49.358;11.140;2023-03-21T14:52:40;17.10;93.80
11961;DHT22;6040;49.358;11.140;2023-03-21T14:55:13;17.10;93.60
11961;DHT22;6040;49.358;11.140;2023-03-21T14:57:41;17.00;93.70
11961;DHT22;6040;49.358;11.140;2023-03-21T15:00:22;17.00;94.00
11961;DHT22;6040;49.358;11.140;2023-03-21T15:02:51;17.00;94.00
11961;DHT22;6040;49.358;11.140;2023-03-21T15:05:22;16.80;93.60
11961;DHT22;6040;49.358;11.140;2023-03-21T15:07:57;16.80;93.50
11961;DHT22;6040;49.358;11.140;2023-03-21T15:10:26;16.80;94.30
11961;DHT22;6040;49.358;11.140;2023-03-21T15:12:55;16.80;94.50
11961;DHT22;6040;49.358;11.140;2023-03-21T15:15:23;16.70;94.30
11961;DHT22;6040;49.358;11.140;2023-03-21T15:17:51;16.70;94.20
11961;DHT22;6040;49.358;11.140;2023-03-21T15:20:23;16.60;94.10
11961;DHT22;6040;49.358;11.140;2023-03-21T15:22:56;16.40;94.20
11961;DHT22;6040;49.358;11.140;2023-03-21T15:25:26;16.40;94.40
11961;DHT22;6040;49.358;11.140;2023-03-21T15:27:54;16.40;94.30
11961;DHT22;6040;49.358;11.140;2023-03-21T15:30:23;16.30;94.70
11961;DHT22;6040;49.358;11.140;2023-03-21T15:32:51;16.20;94.50
11961;DHT22;6040;49.358;11.140;2023-03-21T15:35:21;16.10;94.40
11961;DHT22;6040;49.358;11.140;2023-03-21T15:37:56;16.00;94.30
11961;DHT22;6040;49.358;11.140;2023-03-21T15:40:26;15.90;94.50
11961;DHT22;6040;49.358;11.140;2023-03-21T15:43:03;15.80;94.70
11961;DHT22;6040;49.358;11.140;2023-03-21T15:45:30;15.90;95.30
11961;DHT22;6040;49.358;11.140;2023-03-21T15:47:59;15.90;95.20
11961;DHT22;6040;49.358;11.140;2023-03-21T15:50:33;16.00;95.20
11961;DHT22;6040;49.358;11.140;2023-03-21T15:53:04;15.90;95.10
11961;DHT22;6040;49.358;11.140;2023-03-21T15:55:39;15.90;95.90
11961;DHT22;6040;49.358;11.140;2023-03-21T15:58:13;15.80;95.40
11961;DHT22;6040;49.358;11.140;2023-03-21T16:00:46;15.90;95.70
11961;DHT22;6040;49.358;11.140;2023-03-21T16:03:17;16.80;95.70
11961;DHT22;6040;49.358;11.140;2023-03-21T16:06:01;15.80;95.50